sensor_id;sensor_type;location;lat;lon;timestamp;temperature;humidity
72380;SHT30;60354;47.798;12.472;2023-04-29T00:00:04;10.81;90.08
72380;SHT30;60354;47.798;12.472;2023-04-29T00:02:37;10.84;90.05
72380;SHT30;60354;47.798;12.472;2023-04-29T00:05:02;10.76;90.44
72380;SHT30;60354;47.798;12.472;2023-04-29T00:07:32;10.74;90.46
72380;SHT30;60354;47.798;12.472;2023-04-29T00:09:58;10.72;90.38
72380;SHT30;60354;47.798;12.472;2023-04-29T00:12:24;10.72;90.21
72380;SHT30;60354;47.798;12.472;2023-04-29T00:14:49;10.71;90.56
72380;SHT30;60354;47.798;12.472;2023-04-29T00:17:15;10.72;90.21
72380;SHT30;60354;47.798;12.472;2023-04-29T00:19:41;10.71;90.43
72380;SHT30;60354;47.798;12.472;2023-04-29T00:22:07;10.74;90.12
72380;SHT30;60354;47.798;12.472;2023-04-29T00:24:33;10.69;90.31
72380;SHT30;60354;47.798;12.472;2023-04-29T00:26:58;10.69;90.18
72380;SHT30;60354;47.798;12.472;2023-04-29T00:29:27;10.71;90.07
72380;SHT30;60354;47.798;12.472;2023-04-29T00:31:52;10.74;89.88
72380;SHT30;60354;47.798;12.472;2023-04-29T00:34:18;10.75;89.68
72380;SHT30;60354;47.798;12.472;2023-04-29T00:36:43;10.75;89.68
72380;SHT30;60354;47.798;12.472;2023-04-29T00:39:09;10.78;89.21
72380;SHT30;60354;47.798;12.472;2023-04-29T00:41:34;10.78;89.46
72380;SHT30;60354;47.798;12.472;2023-04-29T00:44:00;10.82;88.93
72380;SHT30;60354;47.798;12.472;2023-04-29T00:46:26;10.86;89.00
72380;SHT30;60354;47.798;12.472;2023-04-29T00:48:51;10.84;89.22
72380;SHT30;60354;47.798;12.472;2023-04-29T00:51:17;10.85;88.99
72380;SHT30;60354;47.798;12.472;2023-04-29T00:53:43;10.95;88.72
72380;SHT30;60354;47.798;12.472;2023-04-29T00:56:09;10.96;88.28
72380;SHT30;60354;47.798;12.472;2023-04-29T00:58:35;10.96;88.57
72380;SHT30;60354;47.798;12.472;2023-04-29T01:01:03;10.99;88.41
72380;SHT30;60354;47.798;12.472;2023-04-29T01:03:29;10.99;88.49
72380;SHT30;60354;47.798;12.472;2023-04-29T01:06:11;10.99;88.60
72380;SHT30;60354;47.798;12.472;2023-04-29T01:14:38;10.91;89.40
72380;SHT30;60354;47.798;12.472;2023-04-29T01:17:09;10.88;89.27
72380;SHT30;60354;47.798;12.472;2023-04-29T01:22:07;10.85;89.62
72380;SHT30;60354;47.798;12.472;2023-04-29T01:24:33;10.85;89.86
72380;SHT30;60354;47.798;12.472;2023-04-29T01:27:09;10.81;90.17
72380;SHT30;60354;47.798;12.472;2023-04-29T01:29:55;10.86;89.79
72380;SHT30;60354;47.798;12.472;2023-04-29T01:32:31;10.84;89.78
72380;SHT30;60354;47.798;12.472;2023-04-29T01:35:14;10.85;89.57
72380;SHT30;60354;47.798;12.472;2023-04-29T01:37:53;10.85;89.48
72380;SHT30;60354;47.798;12.472;2023-04-29T01:40:37;10.86;89.08
72380;SHT30;60354;47.798;12.472;2023-04-29T01:43:14;10.89;89.18
72380;SHT30;60354;47.798;12.472;2023-04-29T01:45:44;10.89;88.73
72380;SHT30;60354;47.798;12.472;2023-04-29T01:48:10;10.91;88.88
72380;SHT30;60354;47.798;12.472;2023-04-29T01:50:37;10.94;88.37
72380;SHT30;60354;47.798;12.472;2023-04-29T01:53:13;10.96;88.24
72380;SHT30;60354;47.798;12.472;2023-04-29T01:55:38;10.99;88.05
72380;SHT30;60354;47.798;12.472;2023-04-29T01:58:17;10.99;88.05
72380;SHT30;60354;47.798;12.472;2023-04-29T02:01:01;10.91;88.53
72380;SHT30;60354;47.798;12.472;2023-04-29T02:03:30;10.86;88.71
72380;SHT30;60354;47.798;12.472;2023-04-29T02:05:58;10.81;88.85
72380;SHT30;60354;47.798;12.472;2023-04-29T02:08:24;10.85;88.58
72380;SHT30;60354;47.798;12.472;2023-04-29T02:10:54;10.82;88.81
72380;SHT30;60354;47.798;12.472;2023-04-29T02:13:29;10.79;89.06
72380;SHT30;60354;47.798;12.472;2023-04-29T02:15:56;10.78;88.95
72380;SHT30;60354;47.798;12.472;2023-04-29T02:18:21;10.76;89.05
72380;SHT30;60354;47.798;12.472;2023-04-29T02:20:47;10.75;89.31
72380;SHT30;60354;47.798;12.472;2023-04-29T02:23:15;10.69;89.73
72380;SHT30;60354;47.798;12.472;2023-04-29T02:25:40;10.68;89.22
72380;SHT30;60354;47.798;12.472;2023-04-29T02:28:06;10.67;89.18
72380;SHT30;60354;47.798;12.472;2023-04-29T02:30:31;10.65;89.40
72380;SHT30;60354;47.798;12.472;2023-04-29T02:32:58;10.61;89.64
72380;SHT30;60354;47.798;12.472;2023-04-29T02:35:23;10.63;89.39
72380;SHT30;60354;47.798;12.472;2023-04-29T02:37:48;10.61;89.57
72380;SHT30;60354;47.798;12.472;2023-04-29T02:40:14;10.60;89.45
72380;SHT30;60354;47.798;12.472;2023-04-29T02:42:40;10.57;89.37
72380;SHT30;60354;47.798;12.472;2023-04-29T02:45:06;10.55;89.66
72380;SHT30;60354;47.798;12.472;2023-04-29T02:47:32;10.53;89.82
72380;SHT30;60354;47.798;12.472;2023-04-29T02:49:57;10.53;89.68
72380;SHT30;60354;47.798;12.472;2023-04-29T02:52:23;10.53;89.73
72380;SHT30;60354;47.798;12.472;2023-04-29T02:54:48;10.60;89.67
72380;SHT30;60354;47.798;12.472;2023-04-29T02:57:14;10.55;89.99
72380;SHT30;60354;47.798;12.472;2023-04-29T02:59:39;10.57;90.11
72380;SHT30;60354;47.798;12.472;2023-04-29T03:02:05;10.54;89.88
72380;SHT30;60354;47.798;12.472;2023-04-29T03:04:30;10.55;90.08
72380;SHT30;60354;47.798;12.472;2023-04-29T03:06:56;10.61;90.09
72380;SHT30;60354;47.798;12.472;2023-04-29T03:09:24;10.55;90.25
72380;SHT30;60354;47.798;12.472;2023-04-29T03:11:49;10.57;90.17
72380;SHT30;60354;47.798;12.472;2023-04-29T03:14:15;10.58;89.96
72380;SHT30;60354;47.798;12.472;2023-04-29T03:16:41;10.63;89.75
72380;SHT30;60354;47.798;12.472;2023-04-29T03:19:06;10.67;89.35
72380;SHT30;60354;47.798;12.472;2023-04-29T03:21:32;10.67;89.48
72380;SHT30;60354;47.798;12.472;2023-04-29T03:23:58;10.65;89.42
72380;SHT30;60354;47.798;12.472;2023-04-29T03:26:29;10.68;89.64
72380;SHT30;60354;47.798;12.472;2023-04-29T03:28:55;10.68;89.38
72380;SHT30;60354;47.798;12.472;2023-04-29T03:31:23;10.69;89.27
72380;SHT30;60354;47.798;12.472;2023-04-29T03:33:49;10.74;89.08
72380;SHT30;60354;47.798;12.472;2023-04-29T03:36:18;10.71;89.27
72380;SHT30;60354;47.798;12.472;2023-04-29T03:38:57;10.76;89.34
72380;SHT30;60354;47.798;12.472;2023-04-29T03:41:22;10.75;89.29
72380;SHT30;60354;47.798;12.472;2023-04-29T03:43:49;10.75;89.19
72380;SHT30;60354;47.798;12.472;2023-04-29T03:46:15;10.79;88.97
72380;SHT30;60354;47.798;12.472;2023-04-29T03:48:41;10.76;89.32
72380;SHT30;60354;47.798;12.472;2023-04-29T03:51:07;10.74;89.04
72380;SHT30;60354;47.798;12.472;2023-04-29T03:53:35;10.72;89.14
72380;SHT30;60354;47.798;12.472;2023-04-29T03:56:03;10.76;88.64
72380;SHT30;60354;47.798;12.472;2023-04-29T03:58:29;10.68;89.31
72380;SHT30;60354;47.798;12.472;2023-04-29T04:00:55;10.72;88.92
72380;SHT30;60354;47.798;12.472;2023-04-29T04:03:26;10.71;88.97
72380;SHT30;60354;47.798;12.472;2023-04-29T04:05:54;10.72;89.08
72380;SHT30;60354;47.798;12.472;2023-04-29T04:08:20;10.65;89.18
72380;SHT30;60354;47.798;12.472;2023-04-29T04:11:00;10.64;89.19
72380;SHT30;60354;47.798;12.472;2023-04-29T04:13:41;10.63;89.15
72380;SHT30;60354;47.798;12.472;2023-04-29T04:16:08;10.64;89.13
72380;SHT30;60354;47.798;12.472;2023-04-29T04:18:35;10.67;89.06
72380;SHT30;60354;47.798;12.472;2023-04-29T04:21:11;10.68;88.92
72380;SHT30;60354;47.798;12.472;2023-04-29T04:23:38;10.68;89.08
72380;SHT30;60354;47.798;12.472;2023-04-29T04:26:06;10.72;89.10
72380;SHT30;60354;47.798;12.472;2023-04-29T04:28:50;10.76;88.77
72380;SHT30;60354;47.798;12.472;2023-04-29T04:31:27;10.78;88.97
72380;SHT30;60354;47.798;12.472;2023-04-29T04:33:54;10.75;88.82
72380;SHT30;60354;47.798;12.472;2023-04-29T04:36:20;10.74;89.11
72380;SHT30;60354;47.798;12.472;2023-04-29T04:38:46;10.76;89.04
72380;SHT30;60354;47.798;12.472;2023-04-29T04:41:11;10.79;89.06
72380;SHT30;60354;47.798;12.472;2023-04-29T04:43:38;10.85;88.81
72380;SHT30;60354;47.798;12.472;2023-04-29T04:46:12;10.89;88.65
72380;SHT30;60354;47.798;12.472;2023-04-29T04:48:43;10.88;88.85
72380;SHT30;60354;47.798;12.472;2023-04-29T04:51:12;10.86;88.97
72380;SHT30;60354;47.798;12.472;2023-04-29T04:53:39;10.92;88.36
72380;SHT30;60354;47.798;12.472;2023-04-29T04:56:09;10.94;88.35
72380;SHT30;60354;47.798;12.472;2023-04-29T04:58:36;10.99;88.28
72380;SHT30;60354;47.798;12.472;2023-04-29T05:01:02;11.02;88.30
72380;SHT30;60354;47.798;12.472;2023-04-29T05:03:28;11.01;88.55
72380;SHT30;60354;47.798;12.472;2023-04-29T05:08:19;11.06;88.19
72380;SHT30;60354;47.798;12.472;2023-04-29T05:10:50;11.04;88.74
72380;SHT30;60354;47.798;12.472;2023-04-29T05:13:16;11.08;88.32
72380;SHT30;60354;47.798;12.472;2023-04-29T05:15:42;11.08;88.54
72380;SHT30;60354;47.798;12.472;2023-04-29T05:18:09;11.16;88.08
72380;SHT30;60354;47.798;12.472;2023-04-29T05:20:35;11.18;88.21
72380;SHT30;60354;47.798;12.472;2023-04-29T05:23:02;11.22;87.65
72380;SHT30;60354;47.798;12.472;2023-04-29T05:25:31;11.27;87.62
72380;SHT30;60354;47.798;12.472;2023-04-29T05:27:57;11.30;86.98
72380;SHT30;60354;47.798;12.472;2023-04-29T05:30:24;11.35;87.21
72380;SHT30;60354;47.798;12.472;2023-04-29T05:32:50;11.37;86.97
72380;SHT30;60354;47.798;12.472;2023-04-29T05:35:17;11.33;87.45
72380;SHT30;60354;47.798;12.472;2023-04-29T05:37:43;11.33;87.68
72380;SHT30;60354;47.798;12.472;2023-04-29T05:40:35;11.33;87.85
72380;SHT30;60354;47.798;12.472;2023-04-29T05:43:29;11.30;87.43
72380;SHT30;60354;47.798;12.472;2023-04-29T05:45:55;11.33;87.88
72380;SHT30;60354;47.798;12.472;2023-04-29T05:48:22;11.33;87.73
72380;SHT30;60354;47.798;12.472;2023-04-29T05:50:49;11.35;87.29
72380;SHT30;60354;47.798;12.472;2023-04-29T05:53:15;11.32;88.06
72380;SHT30;60354;47.798;12.472;2023-04-29T05:55:41;11.29;88.00
72380;SHT30;60354;47.798;12.472;2023-04-29T05:58:10;11.26;87.88
72380;SHT30;60354;47.798;12.472;2023-04-29T06:00:36;11.20;88.27
72380;SHT30;60354;47.798;12.472;2023-04-29T06:03:09;11.19;88.50
72380;SHT30;60354;47.798;12.472;2023-04-29T06:05:36;11.20;88.42
72380;SHT30;60354;47.798;12.472;2023-04-29T06:08:18;11.19;88.65
72380;SHT30;60354;47.798;12.472;2023-04-29T06:11:00;11.23;88.47
72380;SHT30;60354;47.798;12.472;2023-04-29T06:13:27;11.25;88.85
72380;SHT30;60354;47.798;12.472;2023-04-29T06:15:54;11.30;88.82
72380;SHT30;60354;47.798;12.472;2023-04-29T06:18:21;11.36;88.84
72380;SHT30;60354;47.798;12.472;2023-04-29T06:20:46;11.33;88.77
72380;SHT30;60354;47.798;12.472;2023-04-29T06:23:13;11.39;88.18
72380;SHT30;60354;47.798;12.472;2023-04-29T06:25:40;11.36;88.71
72380;SHT30;60354;47.798;12.472;2023-04-29T06:28:07;11.42;88.59
72380;SHT30;60354;47.798;12.472;2023-04-29T06:30:33;11.54;88.30
72380;SHT30;60354;47.798;12.472;2023-04-29T06:32:59;11.59;88.20
72380;SHT30;60354;47.798;12.472;2023-04-29T06:35:24;11.64;88.08
72380;SHT30;60354;47.798;12.472;2023-04-29T06:38:09;11.66;88.02
72380;SHT30;60354;47.798;12.472;2023-04-29T06:40:46;11.69;88.18
72380;SHT30;60354;47.798;12.472;2023-04-29T06:43:31;11.71;88.13
72380;SHT30;60354;47.798;12.472;2023-04-29T06:46:20;11.77;87.91
72380;SHT30;60354;47.798;12.472;2023-04-29T06:49:01;11.87;87.49
72380;SHT30;60354;47.798;12.472;2023-04-29T06:51:26;11.97;87.34
72380;SHT30;60354;47.798;12.472;2023-04-29T06:53:53;12.04;87.39
72380;SHT30;60354;47.798;12.472;2023-04-29T06:56:19;12.11;87.50
72380;SHT30;60354;47.798;12.472;2023-04-29T06:58:46;12.21;87.19
72380;SHT30;60354;47.798;12.472;2023-04-29T07:01:11;12.29;86.97
72380;SHT30;60354;47.798;12.472;2023-04-29T07:03:37;12.41;87.07
72380;SHT30;60354;47.798;12.472;2023-04-29T07:06:02;12.42;86.36
72380;SHT30;60354;47.798;12.472;2023-04-29T07:08:29;12.41;86.04
72380;SHT30;60354;47.798;12.472;2023-04-29T07:10:55;12.39;85.94
72380;SHT30;60354;47.798;12.472;2023-04-29T07:13:22;12.45;86.01
72380;SHT30;60354;47.798;12.472;2023-04-29T07:15:49;12.56;85.92
72380;SHT30;60354;47.798;12.472;2023-04-29T07:18:15;12.67;85.77
72380;SHT30;60354;47.798;12.472;2023-04-29T07:20:40;12.76;85.53
72380;SHT30;60354;47.798;12.472;2023-04-29T07:23:06;12.63;85.77
72380;SHT30;60354;47.798;12.472;2023-04-29T07:25:32;12.46;86.46
72380;SHT30;60354;47.798;12.472;2023-04-29T07:27:59;12.39;87.46
72380;SHT30;60354;47.798;12.472;2023-04-29T07:30:24;12.32;88.40
72380;SHT30;60354;47.798;12.472;2023-04-29T07:32:50;12.34;88.96
72380;SHT30;60354;47.798;12.472;2023-04-29T07:35:17;12.25;89.85
72380;SHT30;60354;47.798;12.472;2023-04-29T07:37:43;12.15;89.70
72380;SHT30;60354;47.798;12.472;2023-04-29T07:40:10;12.07;90.33
72380;SHT30;60354;47.798;12.472;2023-04-29T07:42:36;11.94;90.51
72380;SHT30;60354;47.798;12.472;2023-04-29T07:45:04;11.84;91.76
72380;SHT30;60354;47.798;12.472;2023-04-29T07:47:30;11.62;92.96
72380;SHT30;60354;47.798;12.472;2023-04-29T07:49:55;11.53;94.08
72380;SHT30;60354;47.798;12.472;2023-04-29T07:52:21;11.52;94.59
72380;SHT30;60354;47.798;12.472;2023-04-29T07:54:48;11.50;94.66
72380;SHT30;60354;47.798;12.472;2023-04-29T07:57:13;11.54;95.06
72380;SHT30;60354;47.798;12.472;2023-04-29T07:59:39;11.59;94.63
72380;SHT30;60354;47.798;12.472;2023-04-29T08:02:05;11.63;94.17
72380;SHT30;60354;47.798;12.472;2023-04-29T08:04:32;11.69;94.05
72380;SHT30;60354;47.798;12.472;2023-04-29T08:07:03;11.71;93.77
72380;SHT30;60354;47.798;12.472;2023-04-29T08:09:29;11.78;93.95
72380;SHT30;60354;47.798;12.472;2023-04-29T08:11:54;12.02;93.47
72380;SHT30;60354;47.798;12.472;2023-04-29T08:14:20;12.18;93.38
72380;SHT30;60354;47.798;12.472;2023-04-29T08:16:45;12.17;92.79
72380;SHT30;60354;47.798;12.472;2023-04-29T08:19:11;12.15;93.26
72380;SHT30;60354;47.798;12.472;2023-04-29T08:21:36;13.00;90.71
72380;SHT30;60354;47.798;12.472;2023-04-29T08:24:02;13.47;90.59
72380;SHT30;60354;47.798;12.472;2023-04-29T08:26:27;14.23;89.48
72380;SHT30;60354;47.798;12.472;2023-04-29T08:28:53;14.50;88.60
72380;SHT30;60354;47.798;12.472;2023-04-29T08:31:20;14.19;89.02
72380;SHT30;60354;47.798;12.472;2023-04-29T08:33:46;15.02;86.18
72380;SHT30;60354;47.798;12.472;2023-04-29T08:36:11;15.19;84.68
72380;SHT30;60354;47.798;12.472;2023-04-29T08:38:37;15.16;85.16
72380;SHT30;60354;47.798;12.472;2023-04-29T08:41:03;15.70;84.61
72380;SHT30;60354;47.798;12.472;2023-04-29T08:43:29;15.79;83.54
72380;SHT30;60354;47.798;12.472;2023-04-29T08:45:56;16.16;83.85
72380;SHT30;60354;47.798;12.472;2023-04-29T08:48:22;16.34;83.74
72380;SHT30;60354;47.798;12.472;2023-04-29T08:50:48;15.80;83.39
72380;SHT30;60354;47.798;12.472;2023-04-29T08:53:14;15.57;83.43
72380;SHT30;60354;47.798;12.472;2023-04-29T08:58:06;15.55;84.85
72380;SHT30;60354;47.798;12.472;2023-04-29T09:00:33;15.60;83.14
72380;SHT30;60354;47.798;12.472;2023-04-29T09:03:00;15.43;84.99
72380;SHT30;60354;47.798;12.472;2023-04-29T09:05:29;15.73;82.86
72380;SHT30;60354;47.798;12.472;2023-04-29T09:07:56;15.66;83.47
72380;SHT30;60354;47.798;12.472;2023-04-29T09:10:24;15.77;83.43
72380;SHT30;60354;47.798;12.472;2023-04-29T09:12:50;15.82;84.16
72380;SHT30;60354;47.798;12.472;2023-04-29T09:15:16;16.20;82.83
72380;SHT30;60354;47.798;12.472;2023-04-29T09:17:45;16.78;83.07
72380;SHT30;60354;47.798;12.472;2023-04-29T09:25:22;17.91;75.42
72380;SHT30;60354;47.798;12.472;2023-04-29T09:27:48;18.05;74.82
72380;SHT30;60354;47.798;12.472;2023-04-29T09:30:13;18.25;74.17
72380;SHT30;60354;47.798;12.472;2023-04-29T09:32:41;18.60;73.91
72380;SHT30;60354;47.798;12.472;2023-04-29T09:35:23;18.59;75.61
72380;SHT30;60354;47.798;12.472;2023-04-29T09:37:50;18.91;72.94
72380;SHT30;60354;47.798;12.472;2023-04-29T09:40:31;18.81;73.89
72380;SHT30;60354;47.798;12.472;2023-04-29T09:42:58;18.96;72.51
72380;SHT30;60354;47.798;12.472;2023-04-29T09:45:42;19.10;70.81
72380;SHT30;60354;47.798;12.472;2023-04-29T09:48:09;19.25;69.39
72380;SHT30;60354;47.798;12.472;2023-04-29T09:50:35;18.84;70.47
72380;SHT30;60354;47.798;12.472;2023-04-29T09:53:08;19.07;68.51
72380;SHT30;60354;47.798;12.472;2023-04-29T09:58:32;19.41;67.42
72380;SHT30;60354;47.798;12.472;2023-04-29T10:01:02;19.65;65.31
72380;SHT30;60354;47.798;12.472;2023-04-29T10:03:34;19.77;64.58
72380;SHT30;60354;47.798;12.472;2023-04-29T10:06:02;20.05;65.07
72380;SHT30;60354;47.798;12.472;2023-04-29T10:08:28;20.44;65.09
72380;SHT30;60354;47.798;12.472;2023-04-29T10:11:02;20.36;61.33
72380;SHT30;60354;47.798;12.472;2023-04-29T10:13:29;20.43;62.58
72380;SHT30;60354;47.798;12.472;2023-04-29T10:16:13;20.58;60.36
72380;SHT30;60354;47.798;12.472;2023-04-29T10:18:45;20.75;60.23
72380;SHT30;60354;47.798;12.472;2023-04-29T10:21:13;20.33;63.11
72380;SHT30;60354;47.798;12.472;2023-04-29T10:23:40;20.44;63.79
72380;SHT30;60354;47.798;12.472;2023-04-29T10:26:11;20.88;63.51
72380;SHT30;60354;47.798;12.472;2023-04-29T10:28:37;20.61;65.43
72380;SHT30;60354;47.798;12.472;2023-04-29T10:31:05;20.10;66.24
72380;SHT30;60354;47.798;12.472;2023-04-29T10:33:31;19.63;68.42
72380;SHT30;60354;47.798;12.472;2023-04-29T10:36:00;19.35;69.54
72380;SHT30;60354;47.798;12.472;2023-04-29T10:38:34;18.97;72.97
72380;SHT30;60354;47.798;12.472;2023-04-29T10:41:03;18.13;76.35
72380;SHT30;60354;47.798;12.472;2023-04-29T10:43:31;17.28;79.79
72380;SHT30;60354;47.798;12.472;2023-04-29T10:48:42;15.94;83.57
72380;SHT30;60354;47.798;12.472;2023-04-29T10:51:07;15.90;82.79
72380;SHT30;60354;47.798;12.472;2023-04-29T10:53:33;15.82;80.65
72380;SHT30;60354;47.798;12.472;2023-04-29T10:56:07;15.71;83.35
72380;SHT30;60354;47.798;12.472;2023-04-29T10:58:41;15.53;81.26
72380;SHT30;60354;47.798;12.472;2023-04-29T11:01:10;15.82;82.41
72380;SHT30;60354;47.798;12.472;2023-04-29T11:03:45;16.06;83.61
72380;SHT30;60354;47.798;12.472;2023-04-29T11:06:11;16.28;84.71
72380;SHT30;60354;47.798;12.472;2023-04-29T11:08:37;16.35;81.32
72380;SHT30;60354;47.798;12.472;2023-04-29T11:11:06;16.56;80.35
72380;SHT30;60354;47.798;12.472;2023-04-29T11:13:31;16.89;78.70
72380;SHT30;60354;47.798;12.472;2023-04-29T11:18:32;16.90;78.83
72380;SHT30;60354;47.798;12.472;2023-04-29T11:23:33;16.68;81.60
72380;SHT30;60354;47.798;12.472;2023-04-29T11:25:59;16.56;81.50
72380;SHT30;60354;47.798;12.472;2023-04-29T11:28:26;16.41;79.14
72380;SHT30;60354;47.798;12.472;2023-04-29T11:30:53;16.04;83.51
72380;SHT30;60354;47.798;12.472;2023-04-29T11:33:22;15.70;87.95
72380;SHT30;60354;47.798;12.472;2023-04-29T11:35:48;15.59;85.63
72380;SHT30;60354;47.798;12.472;2023-04-29T11:38:13;14.97;83.30
72380;SHT30;60354;47.798;12.472;2023-04-29T11:40:48;14.85;80.94
72380;SHT30;60354;47.798;12.472;2023-04-29T11:43:18;15.01;82.40
72380;SHT30;60354;47.798;12.472;2023-04-29T11:45:44;15.04;82.38
72380;SHT30;60354;47.798;12.472;2023-04-29T11:48:21;15.18;83.36
72380;SHT30;60354;47.798;12.472;2023-04-29T11:50:49;15.26;82.08
72380;SHT30;60354;47.798;12.472;2023-04-29T11:53:18;15.47;81.39
72380;SHT30;60354;47.798;12.472;2023-04-29T11:55:44;15.85;83.07
72380;SHT30;60354;47.798;12.472;2023-04-29T11:58:10;16.20;82.57
72380;SHT30;60354;47.798;12.472;2023-04-29T12:00:36;16.54;80.26
72380;SHT30;60354;47.798;12.472;2023-04-29T12:03:11;16.73;78.97
72380;SHT30;60354;47.798;12.472;2023-04-29T12:05:38;16.89;75.79
72380;SHT30;60354;47.798;12.472;2023-04-29T12:08:06;16.99;75.20
72380;SHT30;60354;47.798;12.472;2023-04-29T12:10:35;17.15;74.38
72380;SHT30;60354;47.798;12.472;2023-04-29T12:13:00;17.30;73.81
72380;SHT30;60354;47.798;12.472;2023-04-29T12:15:26;17.51;71.79
72380;SHT30;60354;47.798;12.472;2023-04-29T12:17:54;17.61;74.69
72380;SHT30;60354;47.798;12.472;2023-04-29T12:20:20;17.77;74.47
72380;SHT30;60354;47.798;12.472;2023-04-29T12:22:45;17.87;75.87
72380;SHT30;60354;47.798;12.472;2023-04-29T12:25:11;17.57;71.66
72380;SHT30;60354;47.798;12.472;2023-04-29T12:27:39;17.54;73.37
72380;SHT30;60354;47.798;12.472;2023-04-29T12:30:07;17.55;73.36
72380;SHT30;60354;47.798;12.472;2023-04-29T12:32:37;17.58;73.08
72380;SHT30;60354;47.798;12.472;2023-04-29T12:35:02;17.47;73.71
72380;SHT30;60354;47.798;12.472;2023-04-29T12:37:28;17.38;74.84
72380;SHT30;60354;47.798;12.472;2023-04-29T12:39:54;17.41;73.94
72380;SHT30;60354;47.798;12.472;2023-04-29T12:42:20;17.41;76.76
72380;SHT30;60354;47.798;12.472;2023-04-29T12:44:46;17.06;68.08
72380;SHT30;60354;47.798;12.472;2023-04-29T12:47:13;16.92;70.89
72380;SHT30;60354;47.798;12.472;2023-04-29T12:49:43;16.85;75.16
72380;SHT30;60354;47.798;12.472;2023-04-29T12:52:09;16.83;74.85
72380;SHT30;60354;47.798;12.472;2023-04-29T12:54:38;16.58;74.65
72380;SHT30;60354;47.798;12.472;2023-04-29T12:57:08;16.56;74.92
72380;SHT30;60354;47.798;12.472;2023-04-29T12:59:34;16.52;74.58
72380;SHT30;60354;47.798;12.472;2023-04-29T13:02:00;16.66;74.31
72380;SHT30;60354;47.798;12.472;2023-04-29T13:04:26;16.65;73.70
72380;SHT30;60354;47.798;12.472;2023-04-29T13:06:53;16.49;73.74
72380;SHT30;60354;47.798;12.472;2023-04-29T13:09:24;16.58;74.05
72380;SHT30;60354;47.798;12.472;2023-04-29T13:11:50;17.02;72.14
72380;SHT30;60354;47.798;12.472;2023-04-29T13:14:16;17.28;70.88
72380;SHT30;60354;47.798;12.472;2023-04-29T13:16:43;17.54;69.80
72380;SHT30;60354;47.798;12.472;2023-04-29T13:19:09;17.79;68.51
72380;SHT30;60354;47.798;12.472;2023-04-29T13:21:35;17.84;69.11
72380;SHT30;60354;47.798;12.472;2023-04-29T13:24:04;17.78;69.48
72380;SHT30;60354;47.798;12.472;2023-04-29T13:26:29;17.64;70.28
72380;SHT30;60354;47.798;12.472;2023-04-29T13:28:55;17.40;70.33
72380;SHT30;60354;47.798;12.472;2023-04-29T13:31:20;16.96;74.06
72380;SHT30;60354;47.798;12.472;2023-04-29T13:33:46;16.61;78.70
72380;SHT30;60354;47.798;12.472;2023-04-29T13:36:13;16.32;78.81
72380;SHT30;60354;47.798;12.472;2023-04-29T13:38:39;16.03;81.10
72380;SHT30;60354;47.798;12.472;2023-04-29T13:41:04;15.83;83.68
72380;SHT30;60354;47.798;12.472;2023-04-29T13:43:30;15.70;81.57
72380;SHT30;60354;47.798;12.472;2023-04-29T13:45:56;15.86;84.11
72380;SHT30;60354;47.798;12.472;2023-04-29T13:48:21;16.08;83.68
72380;SHT30;60354;47.798;12.472;2023-04-29T13:50:47;16.00;85.06
72380;SHT30;60354;47.798;12.472;2023-04-29T13:53:13;15.91;86.84
72380;SHT30;60354;47.798;12.472;2023-04-29T13:55:39;16.06;86.37
72380;SHT30;60354;47.798;12.472;2023-04-29T13:58:04;16.07;83.50
72380;SHT30;60354;47.798;12.472;2023-04-29T14:00:29;16.13;81.70
72380;SHT30;60354;47.798;12.472;2023-04-29T14:02:55;16.17;82.30
72380;SHT30;60354;47.798;12.472;2023-04-29T14:05:20;16.22;81.39
72380;SHT30;60354;47.798;12.472;2023-04-29T14:07:46;16.52;81.73
72380;SHT30;60354;47.798;12.472;2023-04-29T14:10:12;16.56;82.83
72380;SHT30;60354;47.798;12.472;2023-04-29T14:12:37;16.64;80.92
72380;SHT30;60354;47.798;12.472;2023-04-29T14:15:03;16.61;82.42
72380;SHT30;60354;47.798;12.472;2023-04-29T14:17:28;16.56;80.39
72380;SHT30;60354;47.798;12.472;2023-04-29T14:19:54;16.65;81.72
72380;SHT30;60354;47.798;12.472;2023-04-29T14:22:19;16.66;82.22
72380;SHT30;60354;47.798;12.472;2023-04-29T14:24:45;16.76;81.99
72380;SHT30;60354;47.798;12.472;2023-04-29T14:27:11;16.73;83.18
72380;SHT30;60354;47.798;12.472;2023-04-29T14:29:36;16.73;83.32
72380;SHT30;60354;47.798;12.472;2023-04-29T14:32:02;16.69;83.67
72380;SHT30;60354;47.798;12.472;2023-04-29T14:34:28;16.62;82.26
72380;SHT30;60354;47.798;12.472;2023-04-29T14:36:53;16.66;82.64
72380;SHT30;60354;47.798;12.472;2023-04-29T14:39:18;16.61;82.39
72380;SHT30;60354;47.798;12.472;2023-04-29T14:41:44;16.64;83.01
72380;SHT30;60354;47.798;12.472;2023-04-29T14:44:09;16.59;81.88
72380;SHT30;60354;47.798;12.472;2023-04-29T14:46:35;16.54;82.40
72380;SHT30;60354;47.798;12.472;2023-04-29T14:49:00;16.49;81.92
72380;SHT30;60354;47.798;12.472;2023-04-29T14:51:26;16.37;84.15
72380;SHT30;60354;47.798;12.472;2023-04-29T14:53:52;16.31;84.33
72380;SHT30;60354;47.798;12.472;2023-04-29T14:56:17;16.24;84.66
72380;SHT30;60354;47.798;12.472;2023-04-29T14:58:43;16.25;83.67
72380;SHT30;60354;47.798;12.472;2023-04-29T15:01:08;16.25;83.10
72380;SHT30;60354;47.798;12.472;2023-04-29T15:03:34;16.32;83.50
72380;SHT30;60354;47.798;12.472;2023-04-29T15:06:00;16.37;83.05
72380;SHT30;60354;47.798;12.472;2023-04-29T15:08:28;16.45;82.95
72380;SHT30;60354;47.798;12.472;2023-04-29T15:10:53;16.45;81.86
72380;SHT30;60354;47.798;12.472;2023-04-29T15:13:19;16.34;81.96
72380;SHT30;60354;47.798;12.472;2023-04-29T15:15:44;16.41;81.63
72380;SHT30;60354;47.798;12.472;2023-04-29T15:18:10;16.37;80.40
72380;SHT30;60354;47.798;12.472;2023-04-29T15:20:36;16.41;81.22
72380;SHT30;60354;47.798;12.472;2023-04-29T15:23:02;16.49;82.11
72380;SHT30;60354;47.798;12.472;2023-04-29T15:25:28;16.38;82.02
72380;SHT30;60354;47.798;12.472;2023-04-29T15:27:54;16.37;83.06
72380;SHT30;60354;47.798;12.472;2023-04-29T15:30:20;16.34;83.35
72380;SHT30;60354;47.798;12.472;2023-04-29T15:32:45;16.27;83.89
72380;SHT30;60354;47.798;12.472;2023-04-29T15:35:11;16.21;83.15
72380;SHT30;60354;47.798;12.472;2023-04-29T15:37:37;16.07;81.71
72380;SHT30;60354;47.798;12.472;2023-04-29T15:40:03;16.04;81.59
72380;SHT30;60354;47.798;12.472;2023-04-29T15:42:29;16.00;82.12
72380;SHT30;60354;47.798;12.472;2023-04-29T15:44:55;15.94;81.76
72380;SHT30;60354;47.798;12.472;2023-04-29T15:47:20;15.91;82.33